Aviation Digital Data Service (ADDS)

Output produced by METARs form (0248 UTC 16 October 2018)
found at http://www.aviationweather.gov/metar/data/
 
METAR text: RJCW 160200Z 25012KT 9999 FEW030 SCT060 BKN080 12/03 Q1011
Conditions at: RJCW (WAKKANAI AIRPORT, JP) observed 0200 UTC 16 October 2018
Temperature: 12.0°C (54°F)
Dewpoint: 3.0°C (37°F) [RH = 54%]
Pressure (altimeter): 29.85 inches Hg (1011.0 mb)
Winds: from the WSW (250 degrees) at 14 MPH (12 knots; 6.2 m/s)
Visibility: 6 or more miles (10+ km)
Ceiling: 8000 feet AGL
Clouds: few clouds at 3000 feet AGL
scattered clouds at 6000 feet AGL
broken clouds at 8000 feet AGL
Weather: no significant weather observed at this time